sensor_id;sensor_type;location;lat;lon;timestamp;P1;durP1;ratioP1;P2;durP2;ratioP2
23258;SDS011;11798;51.528;7.240;2023-04-12T00:00:19;8.50;;;2.40;;
23258;SDS011;11798;51.528;7.240;2023-04-12T00:02:45;7.47;;;2.07;;
23258;SDS011;11798;51.528;7.240;2023-04-12T00:05:10;11.13;;;2.47;;
23258;SDS011;11798;51.528;7.240;2023-04-12T00:07:38;10.43;;;2.77;;
23258;SDS011;11798;51.528;7.240;2023-04-12T00:10:07;7.87;;;2.33;;
23258;SDS011;11798;51.528;7.240;2023-04-12T00:12:33;7.17;;;2.23;;
23258;SDS011;11798;51.528;7.240;2023-04-12T00:14:59;6.10;;;2.10;;
23258;SDS011;11798;51.528;7.240;2023-04-12T00:17:25;7.07;;;2.33;;
23258;SDS011;11798;51.528;7.240;2023-04-12T00:19:51;9.27;;;2.83;;
23258;SDS011;11798;51.528;7.240;2023-04-12T00:22:17;9.43;;;2.07;;
23258;SDS011;11798;51.528;7.240;2023-04-12T00:24:42;7.97;;;2.20;;
23258;SDS011;11798;51.528;7.240;2023-04-12T00:27:08;6.60;;;1.97;;
23258;SDS011;11798;51.528;7.240;2023-04-12T00:29:34;5.57;;;2.30;;
23258;SDS011;11798;51.528;7.240;2023-04-12T00:32:00;5.87;;;2.20;;
23258;SDS011;11798;51.528;7.240;2023-04-12T00:34:27;5.33;;;2.30;;
23258;SDS011;11798;51.528;7.240;2023-04-12T00:36:53;9.77;;;2.23;;
23258;SDS011;11798;51.528;7.240;2023-04-12T00:39:19;6.67;;;1.93;;
23258;SDS011;11798;51.528;7.240;2023-04-12T00:41:45;7.70;;;1.90;;
23258;SDS011;11798;51.528;7.240;2023-04-12T00:44:10;7.13;;;1.83;;
23258;SDS011;11798;51.528;7.240;2023-04-12T00:46:39;6.73;;;1.93;;
23258;SDS011;11798;51.528;7.240;2023-04-12T00:49:06;6.77;;;2.23;;
23258;SDS011;11798;51.528;7.240;2023-04-12T00:51:31;5.47;;;2.30;;
23258;SDS011;11798;51.528;7.240;2023-04-12T00:53:58;5.73;;;2.17;;
23258;SDS011;11798;51.528;7.240;2023-04-12T00:56:25;4.23;;;1.60;;
23258;SDS011;11798;51.528;7.240;2023-04-12T00:58:52;8.97;;;1.77;;
23258;SDS011;11798;51.528;7.240;2023-04-12T01:01:19;6.93;;;1.70;;
23258;SDS011;11798;51.528;7.240;2023-04-12T01:03:45;6.67;;;1.97;;
23258;SDS011;11798;51.528;7.240;2023-04-12T01:09:01;9.23;;;2.23;;
23258;SDS011;11798;51.528;7.240;2023-04-12T01:17:16;7.07;;;1.83;;
23258;SDS011;11798;51.528;7.240;2023-04-12T01:19:53;3.30;;;1.60;;
23258;SDS011;11798;51.528;7.240;2023-04-12T01:27:41;4.53;;;1.47;;
23258;SDS011;11798;51.528;7.240;2023-04-12T01:30:11;6.83;;;2.20;;
23258;SDS011;11798;51.528;7.240;2023-04-12T01:32:39;9.93;;;2.00;;
23258;SDS011;11798;51.528;7.240;2023-04-12T01:35:10;6.93;;;1.90;;
23258;SDS011;11798;51.528;7.240;2023-04-12T01:37:37;7.60;;;2.00;;
23258;SDS011;11798;51.528;7.240;2023-04-12T01:40:05;4.50;;;2.03;;
23258;SDS011;11798;51.528;7.240;2023-04-12T01:42:33;6.87;;;1.80;;
23258;SDS011;11798;51.528;7.240;2023-04-12T01:44:59;3.93;;;1.70;;
23258;SDS011;11798;51.528;7.240;2023-04-12T01:47:25;6.70;;;2.23;;
23258;SDS011;11798;51.528;7.240;2023-04-12T01:49:58;8.53;;;1.90;;
23258;SDS011;11798;51.528;7.240;2023-04-12T01:52:37;6.03;;;1.70;;
23258;SDS011;11798;51.528;7.240;2023-04-12T01:55:09;3.97;;;2.30;;
23258;SDS011;11798;51.528;7.240;2023-04-12T01:57:37;7.10;;;2.00;;
23258;SDS011;11798;51.528;7.240;2023-04-12T02:00:07;7.40;;;2.03;;
23258;SDS011;11798;51.528;7.240;2023-04-12T02:02:34;8.60;;;2.40;;
23258;SDS011;11798;51.528;7.240;2023-04-12T02:05:01;5.87;;;2.40;;
23258;SDS011;11798;51.528;7.240;2023-04-12T02:07:28;8.23;;;2.13;;
23258;SDS011;11798;51.528;7.240;2023-04-12T02:09:54;5.67;;;1.87;;
23258;SDS011;11798;51.528;7.240;2023-04-12T02:12:21;4.20;;;1.87;;
23258;SDS011;11798;51.528;7.240;2023-04-12T02:14:46;9.40;;;2.20;;
23258;SDS011;11798;51.528;7.240;2023-04-12T02:17:15;6.23;;;2.30;;
23258;SDS011;11798;51.528;7.240;2023-04-12T02:19:42;10.57;;;2.10;;
23258;SDS011;11798;51.528;7.240;2023-04-12T02:22:07;6.80;;;2.17;;
23258;SDS011;11798;51.528;7.240;2023-04-12T02:24:33;5.87;;;2.47;;
23258;SDS011;11798;51.528;7.240;2023-04-12T02:26:58;4.97;;;1.80;;
23258;SDS011;11798;51.528;7.240;2023-04-12T02:29:25;7.50;;;1.90;;
23258;SDS011;11798;51.528;7.240;2023-04-12T02:31:51;6.43;;;2.03;;
23258;SDS011;11798;51.528;7.240;2023-04-12T02:34:17;4.87;;;1.60;;
23258;SDS011;11798;51.528;7.240;2023-04-12T02:36:47;8.23;;;2.40;;
23258;SDS011;11798;51.528;7.240;2023-04-12T02:39:13;5.63;;;1.97;;
23258;SDS011;11798;51.528;7.240;2023-04-12T02:41:43;5.47;;;2.30;;
23258;SDS011;11798;51.528;7.240;2023-04-12T02:44:09;5.83;;;2.17;;
23258;SDS011;11798;51.528;7.240;2023-04-12T02:46:35;7.83;;;2.37;;
23258;SDS011;11798;51.528;7.240;2023-04-12T02:49:01;11.00;;;2.70;;
23258;SDS011;11798;51.528;7.240;2023-04-12T02:51:26;5.43;;;2.07;;
23258;SDS011;11798;51.528;7.240;2023-04-12T02:53:52;5.63;;;2.40;;
23258;SDS011;11798;51.528;7.240;2023-04-12T02:56:18;6.37;;;2.40;;
23258;SDS011;11798;51.528;7.240;2023-04-12T02:58:45;8.57;;;2.40;;
23258;SDS011;11798;51.528;7.240;2023-04-12T03:01:11;8.13;;;2.30;;
23258;SDS011;11798;51.528;7.240;2023-04-12T03:03:37;6.30;;;1.87;;
23258;SDS011;11798;51.528;7.240;2023-04-12T03:06:03;4.03;;;2.20;;
23258;SDS011;11798;51.528;7.240;2023-04-12T03:08:29;5.37;;;1.73;;
23258;SDS011;11798;51.528;7.240;2023-04-12T03:10:55;7.03;;;1.77;;
23258;SDS011;11798;51.528;7.240;2023-04-12T03:13:21;8.27;;;2.00;;
23258;SDS011;11798;51.528;7.240;2023-04-12T03:15:47;7.23;;;2.10;;
23258;SDS011;11798;51.528;7.240;2023-04-12T03:18:16;4.47;;;2.00;;
23258;SDS011;11798;51.528;7.240;2023-04-12T03:20:45;5.10;;;2.00;;
23258;SDS011;11798;51.528;7.240;2023-04-12T03:23:11;5.83;;;1.77;;
23258;SDS011;11798;51.528;7.240;2023-04-12T03:25:36;4.50;;;1.80;;
23258;SDS011;11798;51.528;7.240;2023-04-12T03:28:02;4.93;;;2.10;;
23258;SDS011;11798;51.528;7.240;2023-04-12T03:30:28;6.83;;;2.03;;
23258;SDS011;11798;51.528;7.240;2023-04-12T03:32:53;5.33;;;2.23;;
23258;SDS011;11798;51.528;7.240;2023-04-12T03:35:19;5.30;;;2.17;;
23258;SDS011;11798;51.528;7.240;2023-04-12T03:37:45;5.63;;;2.23;;
23258;SDS011;11798;51.528;7.240;2023-04-12T03:40:11;6.43;;;1.80;;
23258;SDS011;11798;51.528;7.240;2023-04-12T03:42:37;5.80;;;1.67;;
23258;SDS011;11798;51.528;7.240;2023-04-12T03:45:03;5.20;;;1.73;;
23258;SDS011;11798;51.528;7.240;2023-04-12T03:47:29;4.23;;;1.90;;
23258;SDS011;11798;51.528;7.240;2023-04-12T03:49:56;9.47;;;2.20;;
23258;SDS011;11798;51.528;7.240;2023-04-12T03:52:31;4.60;;;1.70;;
23258;SDS011;11798;51.528;7.240;2023-04-12T03:54:57;7.80;;;2.03;;
23258;SDS011;11798;51.528;7.240;2023-04-12T03:57:22;4.53;;;1.70;;
23258;SDS011;11798;51.528;7.240;2023-04-12T03:59:48;7.10;;;2.57;;
23258;SDS011;11798;51.528;7.240;2023-04-12T04:02:14;7.67;;;2.00;;
23258;SDS011;11798;51.528;7.240;2023-04-12T04:04:39;3.33;;;1.37;;
23258;SDS011;11798;51.528;7.240;2023-04-12T04:07:05;4.63;;;1.60;;
23258;SDS011;11798;51.528;7.240;2023-04-12T04:09:32;4.77;;;1.90;;
23258;SDS011;11798;51.528;7.240;2023-04-12T04:11:58;7.00;;;1.90;;
23258;SDS011;11798;51.528;7.240;2023-04-12T04:14:23;3.83;;;1.93;;
23258;SDS011;11798;51.528;7.240;2023-04-12T04:16:49;5.37;;;1.80;;
23258;SDS011;11798;51.528;7.240;2023-04-12T04:19:15;4.83;;;1.90;;
23258;SDS011;11798;51.528;7.240;2023-04-12T04:21:41;6.23;;;2.00;;
23258;SDS011;11798;51.528;7.240;2023-04-12T04:24:08;3.97;;;1.80;;
23258;SDS011;11798;51.528;7.240;2023-04-12T04:26:35;4.17;;;2.57;;
23258;SDS011;11798;51.528;7.240;2023-04-12T04:29:02;6.37;;;1.87;;
23258;SDS011;11798;51.528;7.240;2023-04-12T04:31:30;6.07;;;1.83;;
23258;SDS011;11798;51.528;7.240;2023-04-12T04:33:58;5.30;;;1.70;;
23258;SDS011;11798;51.528;7.240;2023-04-12T04:36:31;5.07;;;2.00;;
23258;SDS011;11798;51.528;7.240;2023-04-12T04:38:58;2.37;;;1.50;;
23258;SDS011;11798;51.528;7.240;2023-04-12T04:41:25;4.27;;;1.50;;
23258;SDS011;11798;51.528;7.240;2023-04-12T04:43:50;3.83;;;1.83;;
23258;SDS011;11798;51.528;7.240;2023-04-12T04:46:18;8.03;;;2.13;;
23258;SDS011;11798;51.528;7.240;2023-04-12T04:48:45;4.67;;;1.80;;
23258;SDS011;11798;51.528;7.240;2023-04-12T04:51:15;4.77;;;1.93;;
23258;SDS011;11798;51.528;7.240;2023-04-12T04:53:41;2.83;;;1.77;;
23258;SDS011;11798;51.528;7.240;2023-04-12T04:56:07;3.90;;;1.90;;
23258;SDS011;11798;51.528;7.240;2023-04-12T04:58:34;6.13;;;1.87;;
23258;SDS011;11798;51.528;7.240;2023-04-12T05:01:00;6.33;;;2.40;;
23258;SDS011;11798;51.528;7.240;2023-04-12T05:03:26;4.27;;;1.90;;
23258;SDS011;11798;51.528;7.240;2023-04-12T05:05:54;3.23;;;1.50;;
23258;SDS011;11798;51.528;7.240;2023-04-12T05:08:20;5.60;;;2.00;;
23258;SDS011;11798;51.528;7.240;2023-04-12T05:10:49;5.37;;;2.27;;
23258;SDS011;11798;51.528;7.240;2023-04-12T05:13:16;3.57;;;1.70;;
23258;SDS011;11798;51.528;7.240;2023-04-12T05:15:42;4.27;;;2.07;;
23258;SDS011;11798;51.528;7.240;2023-04-12T05:18:08;3.67;;;1.60;;
23258;SDS011;11798;51.528;7.240;2023-04-12T05:20:36;6.97;;;2.23;;
23258;SDS011;11798;51.528;7.240;2023-04-12T05:23:02;3.47;;;1.90;;
23258;SDS011;11798;51.528;7.240;2023-04-12T05:25:28;3.33;;;2.20;;
23258;SDS011;11798;51.528;7.240;2023-04-12T05:27:53;6.00;;;2.20;;
23258;SDS011;11798;51.528;7.240;2023-04-12T05:30:19;4.60;;;1.93;;
23258;SDS011;11798;51.528;7.240;2023-04-12T05:32:45;5.43;;;2.03;;
23258;SDS011;11798;51.528;7.240;2023-04-12T05:35:11;6.13;;;1.83;;
23258;SDS011;11798;51.528;7.240;2023-04-12T05:37:36;3.33;;;2.13;;
23258;SDS011;11798;51.528;7.240;2023-04-12T05:40:02;6.63;;;2.57;;
23258;SDS011;11798;51.528;7.240;2023-04-12T05:42:31;3.67;;;2.37;;
23258;SDS011;11798;51.528;7.240;2023-04-12T05:44:56;4.37;;;2.07;;
23258;SDS011;11798;51.528;7.240;2023-04-12T05:47:22;5.50;;;2.17;;
23258;SDS011;11798;51.528;7.240;2023-04-12T05:49:48;3.80;;;2.10;;
23258;SDS011;11798;51.528;7.240;2023-04-12T05:52:13;3.83;;;2.47;;
23258;SDS011;11798;51.528;7.240;2023-04-12T05:54:39;7.13;;;2.53;;
23258;SDS011;11798;51.528;7.240;2023-04-12T05:57:05;2.33;;;2.10;;
23258;SDS011;11798;51.528;7.240;2023-04-12T05:59:31;3.23;;;1.90;;
23258;SDS011;11798;51.528;7.240;2023-04-12T06:01:57;3.20;;;2.10;;
23258;SDS011;11798;51.528;7.240;2023-04-12T06:04:24;3.70;;;2.20;;
23258;SDS011;11798;51.528;7.240;2023-04-12T06:06:51;5.67;;;2.30;;
23258;SDS011;11798;51.528;7.240;2023-04-12T06:09:17;4.07;;;2.10;;
23258;SDS011;11798;51.528;7.240;2023-04-12T06:11:43;4.10;;;2.07;;
23258;SDS011;11798;51.528;7.240;2023-04-12T06:14:08;2.60;;;1.90;;
23258;SDS011;11798;51.528;7.240;2023-04-12T06:16:34;3.27;;;1.80;;
23258;SDS011;11798;51.528;7.240;2023-04-12T06:18:59;4.80;;;1.83;;
23258;SDS011;11798;51.528;7.240;2023-04-12T06:21:25;3.83;;;2.00;;
23258;SDS011;11798;51.528;7.240;2023-04-12T06:23:51;3.30;;;1.90;;
23258;SDS011;11798;51.528;7.240;2023-04-12T06:26:17;2.10;;;1.67;;
23258;SDS011;11798;51.528;7.240;2023-04-12T06:28:42;4.77;;;2.00;;
23258;SDS011;11798;51.528;7.240;2023-04-12T06:31:08;3.03;;;1.60;;
23258;SDS011;11798;51.528;7.240;2023-04-12T06:33:34;3.40;;;1.90;;
23258;SDS011;11798;51.528;7.240;2023-04-12T06:36:00;3.73;;;1.80;;
23258;SDS011;11798;51.528;7.240;2023-04-12T06:38:26;3.20;;;1.73;;
23258;SDS011;11798;51.528;7.240;2023-04-12T06:40:52;3.93;;;1.77;;
23258;SDS011;11798;51.528;7.240;2023-04-12T06:43:17;2.03;;;1.73;;
23258;SDS011;11798;51.528;7.240;2023-04-12T06:45:44;5.80;;;1.90;;
23258;SDS011;11798;51.528;7.240;2023-04-12T06:48:10;2.77;;;1.97;;
23258;SDS011;11798;51.528;7.240;2023-04-12T06:50:36;5.80;;;1.83;;
23258;SDS011;11798;51.528;7.240;2023-04-12T06:53:01;4.40;;;1.60;;
23258;SDS011;11798;51.528;7.240;2023-04-12T06:55:27;3.60;;;1.80;;
23258;SDS011;11798;51.528;7.240;2023-04-12T06:57:53;3.23;;;1.67;;
23258;SDS011;11798;51.528;7.240;2023-04-12T07:00:19;2.97;;;1.73;;
23258;SDS011;11798;51.528;7.240;2023-04-12T07:02:45;4.30;;;1.67;;
23258;SDS011;11798;51.528;7.240;2023-04-12T07:05:11;2.27;;;1.50;;
23258;SDS011;11798;51.528;7.240;2023-04-12T07:07:37;2.63;;;1.50;;
23258;SDS011;11798;51.528;7.240;2023-04-12T07:10:03;3.23;;;1.57;;
23258;SDS011;11798;51.528;7.240;2023-04-12T07:12:29;1.97;;;1.43;;
23258;SDS011;11798;51.528;7.240;2023-04-12T07:14:55;2.80;;;1.67;;
23258;SDS011;11798;51.528;7.240;2023-04-12T07:17:21;4.20;;;1.63;;
23258;SDS011;11798;51.528;7.240;2023-04-12T07:19:47;1.87;;;1.50;;
23258;SDS011;11798;51.528;7.240;2023-04-12T07:22:14;2.93;;;1.40;;
23258;SDS011;11798;51.528;7.240;2023-04-12T07:24:39;2.77;;;1.30;;
23258;SDS011;11798;51.528;7.240;2023-04-12T07:27:05;2.47;;;1.50;;
23258;SDS011;11798;51.528;7.240;2023-04-12T07:29:31;2.20;;;1.47;;
23258;SDS011;11798;51.528;7.240;2023-04-12T07:31:57;1.87;;;1.30;;
23258;SDS011;11798;51.528;7.240;2023-04-12T07:34:24;2.70;;;1.50;;
23258;SDS011;11798;51.528;7.240;2023-04-12T07:36:49;2.50;;;1.33;;
23258;SDS011;11798;51.528;7.240;2023-04-12T07:39:15;2.13;;;1.53;;
23258;SDS011;11798;51.528;7.240;2023-04-12T07:41:41;2.07;;;1.20;;
23258;SDS011;11798;51.528;7.240;2023-04-12T07:44:10;2.23;;;1.00;;
23258;SDS011;11798;51.528;7.240;2023-04-12T07:46:36;1.90;;;1.40;;
23258;SDS011;11798;51.528;7.240;2023-04-12T07:49:02;4.23;;;1.50;;
23258;SDS011;11798;51.528;7.240;2023-04-12T07:51:28;1.43;;;1.33;;
23258;SDS011;11798;51.528;7.240;2023-04-12T07:53:55;1.57;;;1.40;;
23258;SDS011;11798;51.528;7.240;2023-04-12T07:56:20;1.87;;;1.30;;
23258;SDS011;11798;51.528;7.240;2023-04-12T07:58:46;2.30;;;1.60;;
23258;SDS011;11798;51.528;7.240;2023-04-12T08:01:13;3.77;;;2.27;;
23258;SDS011;11798;51.528;7.240;2023-04-12T08:03:40;3.63;;;1.90;;
23258;SDS011;11798;51.528;7.240;2023-04-12T08:06:05;5.63;;;3.00;;
23258;SDS011;11798;51.528;7.240;2023-04-12T08:08:31;4.50;;;2.33;;
23258;SDS011;11798;51.528;7.240;2023-04-12T08:10:57;1.70;;;1.40;;
23258;SDS011;11798;51.528;7.240;2023-04-12T08:13:23;2.83;;;1.70;;
23258;SDS011;11798;51.528;7.240;2023-04-12T08:15:48;1.77;;;1.17;;
23258;SDS011;11798;51.528;7.240;2023-04-12T08:18:14;4.07;;;1.73;;
23258;SDS011;11798;51.528;7.240;2023-04-12T08:20:40;3.73;;;2.20;;
23258;SDS011;11798;51.528;7.240;2023-04-12T08:23:08;3.00;;;1.30;;
23258;SDS011;11798;51.528;7.240;2023-04-12T08:25:35;1.30;;;1.20;;
23258;SDS011;11798;51.528;7.240;2023-04-12T08:28:01;2.47;;;1.23;;
23258;SDS011;11798;51.528;7.240;2023-04-12T08:30:27;3.03;;;1.17;;
23258;SDS011;11798;51.528;7.240;2023-04-12T08:32:53;1.70;;;1.00;;
23258;SDS011;11798;51.528;7.240;2023-04-12T08:35:19;2.80;;;1.20;;
23258;SDS011;11798;51.528;7.240;2023-04-12T08:37:46;2.10;;;1.00;;
23258;SDS011;11798;51.528;7.240;2023-04-12T08:40:12;2.33;;;1.23;;
23258;SDS011;11798;51.528;7.240;2023-04-12T08:42:37;1.73;;;1.63;;
23258;SDS011;11798;51.528;7.240;2023-04-12T08:45:04;1.80;;;0.90;;
23258;SDS011;11798;51.528;7.240;2023-04-12T08:47:31;1.97;;;1.60;;
23258;SDS011;11798;51.528;7.240;2023-04-12T08:49:59;1.83;;;1.17;;
23258;SDS011;11798;51.528;7.240;2023-04-12T08:52:26;1.47;;;1.13;;
23258;SDS011;11798;51.528;7.240;2023-04-12T08:54:53;2.07;;;1.00;;
23258;SDS011;11798;51.528;7.240;2023-04-12T08:57:20;2.57;;;1.23;;
23258;SDS011;11798;51.528;7.240;2023-04-12T08:59:46;2.13;;;1.00;;
23258;SDS011;11798;51.528;7.240;2023-04-12T09:02:14;1.60;;;1.00;;
23258;SDS011;11798;51.528;7.240;2023-04-12T09:04:49;0.90;;;0.80;;
23258;SDS011;11798;51.528;7.240;2023-04-12T09:07:17;1.20;;;0.90;;
23258;SDS011;11798;51.528;7.240;2023-04-12T09:09:44;0.80;;;0.80;;
23258;SDS011;11798;51.528;7.240;2023-04-12T09:12:11;1.63;;;0.83;;
23258;SDS011;11798;51.528;7.240;2023-04-12T09:14:37;1.23;;;0.97;;
23258;SDS011;11798;51.528;7.240;2023-04-12T09:17:04;0.80;;;0.80;;
23258;SDS011;11798;51.528;7.240;2023-04-12T09:19:51;2.00;;;0.90;;
23258;SDS011;11798;51.528;7.240;2023-04-12T09:22:17;2.03;;;0.80;;
23258;SDS011;11798;51.528;7.240;2023-04-12T09:24:47;1.37;;;1.00;;
23258;SDS011;11798;51.528;7.240;2023-04-12T09:27:14;0.97;;;0.80;;
23258;SDS011;11798;51.528;7.240;2023-04-12T09:29:40;2.07;;;1.10;;
23258;SDS011;11798;51.528;7.240;2023-04-12T09:32:07;1.17;;;1.00;;
23258;SDS011;11798;51.528;7.240;2023-04-12T09:34:33;1.63;;;1.00;;
23258;SDS011;11798;51.528;7.240;2023-04-12T09:37:15;2.50;;;1.30;;
23258;SDS011;11798;51.528;7.240;2023-04-12T09:39:41;1.70;;;1.20;;
23258;SDS011;11798;51.528;7.240;2023-04-12T09:42:09;2.07;;;1.43;;
23258;SDS011;11798;51.528;7.240;2023-04-12T09:44:35;1.40;;;1.07;;
23258;SDS011;11798;51.528;7.240;2023-04-12T09:47:02;4.77;;;1.50;;
23258;SDS011;11798;51.528;7.240;2023-04-12T09:49:34;2.23;;;1.07;;
23258;SDS011;11798;51.528;7.240;2023-04-12T09:52:08;1.93;;;0.90;;
23258;SDS011;11798;51.528;7.240;2023-04-12T09:54:53;1.10;;;1.00;;
23258;SDS011;11798;51.528;7.240;2023-04-12T09:57:21;1.23;;;1.13;;
23258;SDS011;11798;51.528;7.240;2023-04-12T09:59:48;1.37;;;0.93;;
23258;SDS011;11798;51.528;7.240;2023-04-12T10:02:17;2.60;;;0.97;;
23258;SDS011;11798;51.528;7.240;2023-04-12T10:04:46;1.13;;;1.03;;
23258;SDS011;11798;51.528;7.240;2023-04-12T10:07:13;1.67;;;1.20;;
23258;SDS011;11798;51.528;7.240;2023-04-12T10:09:39;0.80;;;0.80;;
23258;SDS011;11798;51.528;7.240;2023-04-12T10:12:06;1.50;;;0.90;;
23258;SDS011;11798;51.528;7.240;2023-04-12T10:14:33;1.27;;;1.00;;
23258;SDS011;11798;51.528;7.240;2023-04-12T10:16:59;1.03;;;0.80;;
23258;SDS011;11798;51.528;7.240;2023-04-12T10:19:27;1.10;;;1.00;;
23258;SDS011;11798;51.528;7.240;2023-04-12T10:21:55;1.30;;;0.93;;
23258;SDS011;11798;51.528;7.240;2023-04-12T10:24:25;0.73;;;0.70;;
23258;SDS011;11798;51.528;7.240;2023-04-12T10:26:53;1.40;;;1.20;;
23258;SDS011;11798;51.528;7.240;2023-04-12T10:29:23;1.97;;;1.07;;
23258;SDS011;11798;51.528;7.240;2023-04-12T10:31:54;1.70;;;1.10;;
23258;SDS011;11798;51.528;7.240;2023-04-12T10:34:30;1.57;;;1.13;;
23258;SDS011;11798;51.528;7.240;2023-04-12T10:36:56;2.67;;;1.13;;
23258;SDS011;11798;51.528;7.240;2023-04-12T10:39:33;1.50;;;1.30;;
23258;SDS011;11798;51.528;7.240;2023-04-12T10:44:52;2.30;;;1.30;;
23258;SDS011;11798;51.528;7.240;2023-04-12T10:47:54;2.93;;;1.67;;
23258;SDS011;11798;51.528;7.240;2023-04-12T10:50:21;1.97;;;1.47;;
23258;SDS011;11798;51.528;7.240;2023-04-12T10:55:40;2.77;;;1.80;;
23258;SDS011;11798;51.528;7.240;2023-04-12T10:58:08;1.80;;;1.50;;
23258;SDS011;11798;51.528;7.240;2023-04-12T11:01:35;2.57;;;2.07;;
23258;SDS011;11798;51.528;7.240;2023-04-12T11:03:29;2.20;;;1.80;;
23258;SDS011;11798;51.528;7.240;2023-04-12T11:06:04;1.73;;;1.63;;
23258;SDS011;11798;51.528;7.240;2023-04-12T11:08:31;2.87;;;1.67;;
23258;SDS011;11798;51.528;7.240;2023-04-12T11:11:03;3.27;;;2.00;;
23258;SDS011;11798;51.528;7.240;2023-04-12T11:13:42;2.60;;;1.80;;
23258;SDS011;11798;51.528;7.240;2023-04-12T11:16:09;2.20;;;2.00;;
23258;SDS011;11798;51.528;7.240;2023-04-12T11:18:37;2.40;;;2.20;;
23258;SDS011;11798;51.528;7.240;2023-04-12T11:21:03;3.97;;;2.30;;
23258;SDS011;11798;51.528;7.240;2023-04-12T11:23:30;3.73;;;2.97;;
23258;SDS011;11798;51.528;7.240;2023-04-12T11:25:56;3.50;;;2.80;;
23258;SDS011;11798;51.528;7.240;2023-04-12T11:28:22;3.67;;;2.87;;
23258;SDS011;11798;51.528;7.240;2023-04-12T11:30:53;3.83;;;2.90;;
23258;SDS011;11798;51.528;7.240;2023-04-12T11:33:30;9.87;;;2.80;;
23258;SDS011;11798;51.528;7.240;2023-04-12T11:36:08;3.77;;;3.47;;
23258;SDS011;11798;51.528;7.240;2023-04-12T11:38:39;4.17;;;3.77;;
23258;SDS011;11798;51.528;7.240;2023-04-12T11:41:05;5.27;;;3.77;;
23258;SDS011;11798;51.528;7.240;2023-04-12T11:43:33;4.97;;;3.80;;
23258;SDS011;11798;51.528;7.240;2023-04-12T11:46:00;4.50;;;4.10;;
23258;SDS011;11798;51.528;7.240;2023-04-12T11:48:26;4.73;;;3.60;;
23258;SDS011;11798;51.528;7.240;2023-04-12T11:50:53;4.40;;;3.00;;
23258;SDS011;11798;51.528;7.240;2023-04-12T11:53:28;4.10;;;2.93;;
23258;SDS011;11798;51.528;7.240;2023-04-12T11:55:55;3.73;;;2.20;;
23258;SDS011;11798;51.528;7.240;2023-04-12T11:58:24;4.50;;;2.57;;
23258;SDS011;11798;51.528;7.240;2023-04-12T12:00:51;4.80;;;2.60;;
23258;SDS011;11798;51.528;7.240;2023-04-12T12:03:18;6.73;;;2.23;;
23258;SDS011;11798;51.528;7.240;2023-04-12T12:05:45;4.93;;;2.10;;
23258;SDS011;11798;51.528;7.240;2023-04-12T12:08:11;5.97;;;2.17;;
23258;SDS011;11798;51.528;7.240;2023-04-12T12:10:37;4.30;;;2.20;;
23258;SDS011;11798;51.528;7.240;2023-04-12T12:13:11;4.47;;;2.13;;
23258;SDS011;11798;51.528;7.240;2023-04-12T12:15:37;4.47;;;2.07;;
23258;SDS011;11798;51.528;7.240;2023-04-12T12:18:06;3.83;;;1.83;;
23258;SDS011;11798;51.528;7.240;2023-04-12T12:20:54;5.23;;;2.20;;
23258;SDS011;11798;51.528;7.240;2023-04-12T12:23:53;5.27;;;1.73;;
23258;SDS011;11798;51.528;7.240;2023-04-12T12:26:19;2.93;;;1.80;;
23258;SDS011;11798;51.528;7.240;2023-04-12T12:28:49;3.23;;;1.93;;
23258;SDS011;11798;51.528;7.240;2023-04-12T12:31:23;4.97;;;2.40;;
23258;SDS011;11798;51.528;7.240;2023-04-12T12:33:54;5.13;;;2.40;;
23258;SDS011;11798;51.528;7.240;2023-04-12T12:36:31;6.67;;;2.10;;
23258;SDS011;11798;51.528;7.240;2023-04-12T12:39:17;4.70;;;2.13;;
23258;SDS011;11798;51.528;7.240;2023-04-12T12:41:43;4.53;;;2.00;;
23258;SDS011;11798;51.528;7.240;2023-04-12T12:44:18;4.97;;;2.27;;
23258;SDS011;11798;51.528;7.240;2023-04-12T12:46:44;5.70;;;2.20;;
23258;SDS011;11798;51.528;7.240;2023-04-12T12:49:10;7.23;;;2.60;;
23258;SDS011;11798;51.528;7.240;2023-04-12T12:51:35;5.77;;;2.40;;
23258;SDS011;11798;51.528;7.240;2023-04-12T12:54:01;6.73;;;2.67;;
23258;SDS011;11798;51.528;7.240;2023-04-12T12:56:27;6.30;;;2.30;;
23258;SDS011;11798;51.528;7.240;2023-04-12T12:58:52;7.67;;;2.93;;
23258;SDS011;11798;51.528;7.240;2023-04-12T13:01:18;7.33;;;2.80;;
23258;SDS011;11798;51.528;7.240;2023-04-12T13:03:43;7.67;;;3.10;;
23258;SDS011;11798;51.528;7.240;2023-04-12T13:06:09;7.03;;;2.93;;
23258;SDS011;11798;51.528;7.240;2023-04-12T13:08:35;10.17;;;2.90;;
23258;SDS011;11798;51.528;7.240;2023-04-12T13:11:01;5.73;;;2.40;;
23258;SDS011;11798;51.528;7.240;2023-04-12T13:13:27;10.40;;;3.70;;
23258;SDS011;11798;51.528;7.240;2023-04-12T13:15:52;6.03;;;2.47;;
23258;SDS011;11798;51.528;7.240;2023-04-12T13:18:18;6.53;;;2.73;;
23258;SDS011;11798;51.528;7.240;2023-04-12T13:20:44;10.77;;;2.90;;
23258;SDS011;11798;51.528;7.240;2023-04-12T13:23:10;9.57;;;3.13;;
23258;SDS011;11798;51.528;7.240;2023-04-12T13:25:35;8.37;;;3.40;;
23258;SDS011;11798;51.528;7.240;2023-04-12T13:28:01;7.20;;;2.80;;
23258;SDS011;11798;51.528;7.240;2023-04-12T13:30:26;7.97;;;2.40;;
23258;SDS011;11798;51.528;7.240;2023-04-12T13:32:52;6.27;;;2.40;;
23258;SDS011;11798;51.528;7.240;2023-04-12T13:35:19;5.03;;;2.00;;
23258;SDS011;11798;51.528;7.240;2023-04-12T13:37:44;4.93;;;2.10;;
23258;SDS011;11798;51.528;7.240;2023-04-12T13:40:10;9.60;;;2.30;;
23258;SDS011;11798;51.528;7.240;2023-04-12T13:42:36;8.50;;;2.20;;
23258;SDS011;11798;51.528;7.240;2023-04-12T13:45:01;4.37;;;2.07;;
23258;SDS011;11798;51.528;7.240;2023-04-12T13:47:28;10.67;;;2.53;;
23258;SDS011;11798;51.528;7.240;2023-04-12T13:49:54;6.80;;;2.27;;
23258;SDS011;11798;51.528;7.240;2023-04-12T13:52:20;6.83;;;2.57;;
23258;SDS011;11798;51.528;7.240;2023-04-12T13:54:45;7.10;;;3.07;;
23258;SDS011;11798;51.528;7.240;2023-04-12T13:57:11;8.60;;;2.40;;
23258;SDS011;11798;51.528;7.240;2023-04-12T13:59:37;7.43;;;2.50;;
23258;SDS011;11798;51.528;7.240;2023-04-12T14:02:02;10.90;;;2.93;;
23258;SDS011;11798;51.528;7.240;2023-04-12T14:04:28;6.30;;;2.63;;
23258;SDS011;11798;51.528;7.240;2023-04-12T14:06:55;11.10;;;3.20;;
23258;SDS011;11798;51.528;7.240;2023-04-12T14:09:28;8.40;;;3.40;;
23258;SDS011;11798;51.528;7.240;2023-04-12T14:11:55;7.70;;;3.20;;
23258;SDS011;11798;51.528;7.240;2023-04-12T14:14:23;10.10;;;3.43;;
23258;SDS011;11798;51.528;7.240;2023-04-12T14:16:50;9.83;;;3.53;;
23258;SDS011;11798;51.528;7.240;2023-04-12T14:19:17;10.33;;;3.43;;
23258;SDS011;11798;51.528;7.240;2023-04-12T14:21:44;11.00;;;3.67;;
23258;SDS011;11798;51.528;7.240;2023-04-12T14:24:10;8.37;;;3.10;;
23258;SDS011;11798;51.528;7.240;2023-04-12T14:26:37;8.10;;;3.00;;
23258;SDS011;11798;51.528;7.240;2023-04-12T14:29:04;9.77;;;3.00;;
23258;SDS011;11798;51.528;7.240;2023-04-12T14:31:35;7.50;;;2.97;;
23258;SDS011;11798;51.528;7.240;2023-04-12T14:34:02;7.33;;;3.60;;
23258;SDS011;11798;51.528;7.240;2023-04-12T14:36:28;8.10;;;3.53;;
23258;SDS011;11798;51.528;7.240;2023-04-12T14:38:55;6.60;;;3.67;;
23258;SDS011;11798;51.528;7.240;2023-04-12T14:41:22;9.00;;;3.20;;
23258;SDS011;11798;51.528;7.240;2023-04-12T14:43:47;10.70;;;4.73;;
23258;SDS011;11798;51.528;7.240;2023-04-12T14:46:15;8.77;;;3.30;;
23258;SDS011;11798;51.528;7.240;2023-04-12T14:48:41;11.83;;;3.63;;
23258;SDS011;11798;51.528;7.240;2023-04-12T14:51:07;10.80;;;3.37;;
23258;SDS011;11798;51.528;7.240;2023-04-12T14:53:32;12.73;;;3.60;;
23258;SDS011;11798;51.528;7.240;2023-04-12T14:55:58;10.90;;;4.40;;
23258;SDS011;11798;51.528;7.240;2023-04-12T14:58:29;11.47;;;3.60;;
23258;SDS011;11798;51.528;7.240;2023-04-12T15:00:56;12.20;;;3.97;;
23258;SDS011;11798;51.528;7.240;2023-04-12T15:03:24;8.90;;;3.90;;
23258;SDS011;11798;51.528;7.240;2023-04-12T15:05:50;9.87;;;3.87;;
23258;SDS011;11798;51.528;7.240;2023-04-12T15:08:16;11.97;;;4.07;;